sensor_id;sensor_type;location;lat;lon;timestamp;temperature;humidity
35258;DHT22;21385;50.878;8.050;2023-01-10T00:01:11;6.20;99.90
35258;DHT22;21385;50.878;8.050;2023-01-10T00:03:37;6.20;99.90
35258;DHT22;21385;50.878;8.050;2023-01-10T00:06:02;6.20;99.90
35258;DHT22;21385;50.878;8.050;2023-01-10T00:08:28;6.10;99.90
35258;DHT22;21385;50.878;8.050;2023-01-10T00:10:53;6.10;99.90
35258;DHT22;21385;50.878;8.050;2023-01-10T00:13:19;6.10;99.90
35258;DHT22;21385;50.878;8.050;2023-01-10T00:15:48;6.10;99.90
35258;DHT22;21385;50.878;8.050;2023-01-10T00:18:14;6.10;99.90
35258;DHT22;21385;50.878;8.050;2023-01-10T00:20:39;6.10;99.90
35258;DHT22;21385;50.878;8.050;2023-01-10T00:23:05;6.00;99.90
35258;DHT22;21385;50.878;8.050;2023-01-10T00:25:31;6.00;99.90
35258;DHT22;21385;50.878;8.050;2023-01-10T00:28:00;6.10;99.90
35258;DHT22;21385;50.878;8.050;2023-01-10T00:30:37;6.10;99.90
35258;DHT22;21385;50.878;8.050;2023-01-10T00:33:03;6.10;99.90
35258;DHT22;21385;50.878;8.050;2023-01-10T00:35:29;6.10;99.90
35258;DHT22;21385;50.878;8.050;2023-01-10T00:37:55;6.10;99.90
35258;DHT22;21385;50.878;8.050;2023-01-10T00:40:25;6.10;99.90
35258;DHT22;21385;50.878;8.050;2023-01-10T00:42:51;6.10;99.90
35258;DHT22;21385;50.878;8.050;2023-01-10T00:45:36;6.20;99.90
35258;DHT22;21385;50.878;8.050;2023-01-10T00:48:01;6.10;99.90
35258;DHT22;21385;50.878;8.050;2023-01-10T00:50:27;6.20;99.90
35258;DHT22;21385;50.878;8.050;2023-01-10T00:52:52;6.20;99.90
35258;DHT22;21385;50.878;8.050;2023-01-10T00:55:18;6.20;99.90
35258;DHT22;21385;50.878;8.050;2023-01-10T00:57:43;6.20;99.90
35258;DHT22;21385;50.878;8.050;2023-01-10T01:00:09;6.20;99.90
35258;DHT22;21385;50.878;8.050;2023-01-10T01:02:36;6.20;99.90
35258;DHT22;21385;50.878;8.050;2023-01-10T01:05:03;6.10;99.90
35258;DHT22;21385;50.878;8.050;2023-01-10T01:07:28;6.10;99.90
35258;DHT22;21385;50.878;8.050;2023-01-10T01:12:39;6.00;99.90
35258;DHT22;21385;50.878;8.050;2023-01-10T01:15:05;6.10;99.90
35258;DHT22;21385;50.878;8.050;2023-01-10T01:17:31;6.10;99.90
35258;DHT22;21385;50.878;8.050;2023-01-10T01:19:56;6.10;99.90
35258;DHT22;21385;50.878;8.050;2023-01-10T01:22:22;6.00;99.90
35258;DHT22;21385;50.878;8.050;2023-01-10T01:24:47;6.10;99.90
35258;DHT22;21385;50.878;8.050;2023-01-10T01:27:13;6.10;99.90
35258;DHT22;21385;50.878;8.050;2023-01-10T01:29:38;6.20;99.90
35258;DHT22;21385;50.878;8.050;2023-01-10T01:32:04;6.10;99.90
35258;DHT22;21385;50.878;8.050;2023-01-10T01:34:29;6.10;99.90
35258;DHT22;21385;50.878;8.050;2023-01-10T01:36:55;6.20;99.90
35258;DHT22;21385;50.878;8.050;2023-01-10T01:39:22;6.10;99.90
35258;DHT22;21385;50.878;8.050;2023-01-10T01:41:48;6.10;99.90
35258;DHT22;21385;50.878;8.050;2023-01-10T01:44:27;6.10;99.90
35258;DHT22;21385;50.878;8.050;2023-01-10T01:47:22;6.10;99.90
35258;DHT22;21385;50.878;8.050;2023-01-10T01:49:49;6.10;99.90
35258;DHT22;21385;50.878;8.050;2023-01-10T01:52:26;6.00;99.90
35258;DHT22;21385;50.878;8.050;2023-01-10T01:54:57;6.00;99.90
35258;DHT22;21385;50.878;8.050;2023-01-10T01:59:52;6.00;99.90
35258;DHT22;21385;50.878;8.050;2023-01-10T02:02:22;6.00;99.90
35258;DHT22;21385;50.878;8.050;2023-01-10T02:04:53;5.90;99.90
35258;DHT22;21385;50.878;8.050;2023-01-10T02:07:21;5.80;99.90
35258;DHT22;21385;50.878;8.050;2023-01-10T02:09:52;5.70;99.90
35258;DHT22;21385;50.878;8.050;2023-01-10T02:12:19;5.70;99.90
35258;DHT22;21385;50.878;8.050;2023-01-10T02:14:46;5.70;99.90
35258;DHT22;21385;50.878;8.050;2023-01-10T02:17:12;5.80;99.90
35258;DHT22;21385;50.878;8.050;2023-01-10T02:19:53;5.80;99.90
35258;DHT22;21385;50.878;8.050;2023-01-10T02:25:56;5.80;99.90
35258;DHT22;21385;50.878;8.050;2023-01-10T02:34:16;5.80;99.90
35258;DHT22;21385;50.878;8.050;2023-01-10T02:44:36;5.70;99.90
35258;DHT22;21385;50.878;8.050;2023-01-10T02:47:07;5.80;99.90
35258;DHT22;21385;50.878;8.050;2023-01-10T02:49:46;5.80;99.90
35258;DHT22;21385;50.878;8.050;2023-01-10T02:52:22;5.80;99.90
35258;DHT22;21385;50.878;8.050;2023-01-10T02:54:49;5.80;99.90
35258;DHT22;21385;50.878;8.050;2023-01-10T02:57:25;5.80;99.90
35258;DHT22;21385;50.878;8.050;2023-01-10T03:00:02;5.80;99.90
35258;DHT22;21385;50.878;8.050;2023-01-10T03:11:03;5.90;99.90
35258;DHT22;21385;50.878;8.050;2023-01-10T03:13:43;5.90;99.90
35258;DHT22;21385;50.878;8.050;2023-01-10T03:16:19;5.90;99.90
35258;DHT22;21385;50.878;8.050;2023-01-10T03:19:12;5.90;99.90
35258;DHT22;21385;50.878;8.050;2023-01-10T03:21:40;5.90;99.90
35258;DHT22;21385;50.878;8.050;2023-01-10T03:24:12;5.90;99.90
35258;DHT22;21385;50.878;8.050;2023-01-10T03:26:47;6.00;99.90
35258;DHT22;21385;50.878;8.050;2023-01-10T03:29:27;6.00;99.90
35258;DHT22;21385;50.878;8.050;2023-01-10T03:31:58;5.90;99.90
35258;DHT22;21385;50.878;8.050;2023-01-10T03:34:25;5.90;99.90
35258;DHT22;21385;50.878;8.050;2023-01-10T03:37:05;6.00;99.90
35258;DHT22;21385;50.878;8.050;2023-01-10T03:39:44;5.90;99.90
35258;DHT22;21385;50.878;8.050;2023-01-10T03:43:02;6.00;99.90
35258;DHT22;21385;50.878;8.050;2023-01-10T03:46:07;5.90;99.90
35258;DHT22;21385;50.878;8.050;2023-01-10T03:48:37;5.90;99.90
35258;DHT22;21385;50.878;8.050;2023-01-10T03:51:06;6.00;99.90
35258;DHT22;21385;50.878;8.050;2023-01-10T03:53:33;6.00;99.90
35258;DHT22;21385;50.878;8.050;2023-01-10T03:56:01;5.80;99.90
35258;DHT22;21385;50.878;8.050;2023-01-10T03:58:28;5.90;99.90
35258;DHT22;21385;50.878;8.050;2023-01-10T04:00:54;5.90;99.90
35258;DHT22;21385;50.878;8.050;2023-01-10T04:03:19;5.90;99.90
35258;DHT22;21385;50.878;8.050;2023-01-10T04:05:45;6.00;99.90
35258;DHT22;21385;50.878;8.050;2023-01-10T04:08:11;6.00;99.90
35258;DHT22;21385;50.878;8.050;2023-01-10T04:10:36;5.80;99.90
35258;DHT22;21385;50.878;8.050;2023-01-10T04:13:03;5.80;99.90
35258;DHT22;21385;50.878;8.050;2023-01-10T04:15:29;5.80;99.90
35258;DHT22;21385;50.878;8.050;2023-01-10T04:17:55;5.80;99.90
35258;DHT22;21385;50.878;8.050;2023-01-10T04:20:21;5.80;99.90
35258;DHT22;21385;50.878;8.050;2023-01-10T04:22:47;5.90;99.90
35258;DHT22;21385;50.878;8.050;2023-01-10T04:25:15;5.90;99.90
35258;DHT22;21385;50.878;8.050;2023-01-10T04:27:41;6.00;99.90
35258;DHT22;21385;50.878;8.050;2023-01-10T04:30:07;6.00;99.90
35258;DHT22;21385;50.878;8.050;2023-01-10T04:32:33;6.00;99.90
35258;DHT22;21385;50.878;8.050;2023-01-10T04:34:59;6.00;99.90
35258;DHT22;21385;50.878;8.050;2023-01-10T04:37:24;6.00;99.90
35258;DHT22;21385;50.878;8.050;2023-01-10T04:39:50;6.00;99.90
35258;DHT22;21385;50.878;8.050;2023-01-10T04:42:16;6.00;99.90
35258;DHT22;21385;50.878;8.050;2023-01-10T04:44:42;6.00;99.90
35258;DHT22;21385;50.878;8.050;2023-01-10T04:47:07;6.00;99.90
35258;DHT22;21385;50.878;8.050;2023-01-10T04:49:33;5.90;99.90
35258;DHT22;21385;50.878;8.050;2023-01-10T04:51:59;6.00;99.90
35258;DHT22;21385;50.878;8.050;2023-01-10T04:54:24;5.90;99.90
35258;DHT22;21385;50.878;8.050;2023-01-10T04:56:50;5.80;99.90
35258;DHT22;21385;50.878;8.050;2023-01-10T04:59:15;5.90;99.90
35258;DHT22;21385;50.878;8.050;2023-01-10T05:01:41;5.80;99.90
35258;DHT22;21385;50.878;8.050;2023-01-10T05:04:07;5.80;99.90
35258;DHT22;21385;50.878;8.050;2023-01-10T05:06:33;5.80;99.90
35258;DHT22;21385;50.878;8.050;2023-01-10T05:08:59;5.90;99.90
35258;DHT22;21385;50.878;8.050;2023-01-10T05:11:24;5.90;99.90
35258;DHT22;21385;50.878;8.050;2023-01-10T05:13:50;5.90;99.90
35258;DHT22;21385;50.878;8.050;2023-01-10T05:16:16;6.00;99.90
35258;DHT22;21385;50.878;8.050;2023-01-10T05:18:41;5.90;99.90
35258;DHT22;21385;50.878;8.050;2023-01-10T05:21:09;5.90;99.90
35258;DHT22;21385;50.878;8.050;2023-01-10T05:23:35;5.90;99.90
35258;DHT22;21385;50.878;8.050;2023-01-10T05:26:10;5.90;99.90
35258;DHT22;21385;50.878;8.050;2023-01-10T05:28:36;5.90;99.90
35258;DHT22;21385;50.878;8.050;2023-01-10T05:33:28;5.80;99.90
35258;DHT22;21385;50.878;8.050;2023-01-10T05:35:53;5.80;99.90
35258;DHT22;21385;50.878;8.050;2023-01-10T05:38:19;5.90;99.90
35258;DHT22;21385;50.878;8.050;2023-01-10T05:40:44;6.00;99.90
35258;DHT22;21385;50.878;8.050;2023-01-10T05:43:10;6.00;99.90
35258;DHT22;21385;50.878;8.050;2023-01-10T05:45:36;5.90;99.90
35258;DHT22;21385;50.878;8.050;2023-01-10T05:48:02;5.90;99.90
35258;DHT22;21385;50.878;8.050;2023-01-10T05:50:28;5.90;99.90
35258;DHT22;21385;50.878;8.050;2023-01-10T05:52:53;5.80;99.90
35258;DHT22;21385;50.878;8.050;2023-01-10T05:55:19;5.80;99.90
35258;DHT22;21385;50.878;8.050;2023-01-10T05:57:44;5.80;99.90
35258;DHT22;21385;50.878;8.050;2023-01-10T06:00:10;5.80;99.90
35258;DHT22;21385;50.878;8.050;2023-01-10T06:02:36;5.80;99.90
35258;DHT22;21385;50.878;8.050;2023-01-10T06:05:02;5.80;99.90
35258;DHT22;21385;50.878;8.050;2023-01-10T06:07:27;5.80;99.90
35258;DHT22;21385;50.878;8.050;2023-01-10T06:09:53;5.80;99.90
35258;DHT22;21385;50.878;8.050;2023-01-10T06:12:18;5.80;99.90
35258;DHT22;21385;50.878;8.050;2023-01-10T06:14:44;5.80;99.90
35258;DHT22;21385;50.878;8.050;2023-01-10T06:17:10;5.80;99.90
35258;DHT22;21385;50.878;8.050;2023-01-10T06:19:36;5.80;99.90
35258;DHT22;21385;50.878;8.050;2023-01-10T06:22:02;5.90;99.90
35258;DHT22;21385;50.878;8.050;2023-01-10T06:24:28;5.90;99.90
35258;DHT22;21385;50.878;8.050;2023-01-10T06:26:54;5.90;99.90
35258;DHT22;21385;50.878;8.050;2023-01-10T06:29:19;5.90;99.90
35258;DHT22;21385;50.878;8.050;2023-01-10T06:31:45;5.90;99.90
35258;DHT22;21385;50.878;8.050;2023-01-10T06:34:10;5.90;99.90
35258;DHT22;21385;50.878;8.050;2023-01-10T06:36:36;5.90;99.90
35258;DHT22;21385;50.878;8.050;2023-01-10T06:39:01;5.90;99.90
35258;DHT22;21385;50.878;8.050;2023-01-10T06:41:27;5.90;99.90
35258;DHT22;21385;50.878;8.050;2023-01-10T06:43:52;5.90;99.90
35258;DHT22;21385;50.878;8.050;2023-01-10T06:46:19;5.80;99.90
35258;DHT22;21385;50.878;8.050;2023-01-10T06:48:45;5.90;99.90
35258;DHT22;21385;50.878;8.050;2023-01-10T06:51:12;5.90;99.90
35258;DHT22;21385;50.878;8.050;2023-01-10T06:53:38;5.80;99.90
35258;DHT22;21385;50.878;8.050;2023-01-10T06:56:04;5.90;99.90
35258;DHT22;21385;50.878;8.050;2023-01-10T06:58:30;5.90;99.90
35258;DHT22;21385;50.878;8.050;2023-01-10T07:00:56;5.80;99.90
35258;DHT22;21385;50.878;8.050;2023-01-10T07:03:22;5.80;99.90
35258;DHT22;21385;50.878;8.050;2023-01-10T07:05:47;5.90;99.90
35258;DHT22;21385;50.878;8.050;2023-01-10T07:08:13;5.80;99.90
35258;DHT22;21385;50.878;8.050;2023-01-10T07:10:40;5.80;99.90
35258;DHT22;21385;50.878;8.050;2023-01-10T07:13:06;5.80;99.90
35258;DHT22;21385;50.878;8.050;2023-01-10T07:15:31;5.70;99.90
35258;DHT22;21385;50.878;8.050;2023-01-10T07:17:57;5.90;99.90
35258;DHT22;21385;50.878;8.050;2023-01-10T07:20:23;5.90;99.90
35258;DHT22;21385;50.878;8.050;2023-01-10T07:22:56;5.90;99.90
35258;DHT22;21385;50.878;8.050;2023-01-10T07:25:23;5.90;99.90
35258;DHT22;21385;50.878;8.050;2023-01-10T07:27:48;5.80;99.90
35258;DHT22;21385;50.878;8.050;2023-01-10T07:30:14;5.80;99.90
35258;DHT22;21385;50.878;8.050;2023-01-10T07:32:40;5.90;99.90
35258;DHT22;21385;50.878;8.050;2023-01-10T07:35:05;5.80;99.90
35258;DHT22;21385;50.878;8.050;2023-01-10T07:37:31;5.90;99.90
35258;DHT22;21385;50.878;8.050;2023-01-10T07:39:58;6.00;99.90
35258;DHT22;21385;50.878;8.050;2023-01-10T07:42:24;5.90;99.90
35258;DHT22;21385;50.878;8.050;2023-01-10T07:44:49;5.90;99.90
35258;DHT22;21385;50.878;8.050;2023-01-10T07:47:15;5.90;99.90
35258;DHT22;21385;50.878;8.050;2023-01-10T07:49:42;5.90;99.90
35258;DHT22;21385;50.878;8.050;2023-01-10T07:52:07;5.90;99.90
35258;DHT22;21385;50.878;8.050;2023-01-10T07:54:34;5.90;99.90
35258;DHT22;21385;50.878;8.050;2023-01-10T07:57:00;5.90;99.90
35258;DHT22;21385;50.878;8.050;2023-01-10T07:59:26;5.80;99.90
35258;DHT22;21385;50.878;8.050;2023-01-10T08:01:51;5.60;99.90
35258;DHT22;21385;50.878;8.050;2023-01-10T08:04:18;5.60;99.90
35258;DHT22;21385;50.878;8.050;2023-01-10T08:06:44;5.70;99.90
35258;DHT22;21385;50.878;8.050;2023-01-10T08:09:10;5.70;99.90
35258;DHT22;21385;50.878;8.050;2023-01-10T08:11:35;5.70;99.90
35258;DHT22;21385;50.878;8.050;2023-01-10T08:14:01;5.70;99.90
35258;DHT22;21385;50.878;8.050;2023-01-10T08:16:26;5.70;99.90
35258;DHT22;21385;50.878;8.050;2023-01-10T08:18:52;5.70;99.90
35258;DHT22;21385;50.878;8.050;2023-01-10T08:21:18;5.70;99.90
35258;DHT22;21385;50.878;8.050;2023-01-10T08:23:43;5.80;99.90
35258;DHT22;21385;50.878;8.050;2023-01-10T08:26:09;5.80;99.90
35258;DHT22;21385;50.878;8.050;2023-01-10T08:28:34;5.70;99.90
35258;DHT22;21385;50.878;8.050;2023-01-10T08:31:07;5.70;99.90
35258;DHT22;21385;50.878;8.050;2023-01-10T08:33:33;5.80;99.90
35258;DHT22;21385;50.878;8.050;2023-01-10T08:35:59;5.90;99.90
35258;DHT22;21385;50.878;8.050;2023-01-10T08:38:24;5.90;99.90
35258;DHT22;21385;50.878;8.050;2023-01-10T08:40:50;5.80;99.90
35258;DHT22;21385;50.878;8.050;2023-01-10T08:43:16;5.70;99.90
35258;DHT22;21385;50.878;8.050;2023-01-10T08:45:41;5.70;99.90
35258;DHT22;21385;50.878;8.050;2023-01-10T08:48:08;5.80;99.90
35258;DHT22;21385;50.878;8.050;2023-01-10T08:50:34;5.80;99.90
35258;DHT22;21385;50.878;8.050;2023-01-10T08:53:00;5.60;99.90
35258;DHT22;21385;50.878;8.050;2023-01-10T09:00:18;5.60;99.90
35258;DHT22;21385;50.878;8.050;2023-01-10T09:02:44;5.70;99.90
35258;DHT22;21385;50.878;8.050;2023-01-10T09:05:10;5.70;99.90
35258;DHT22;21385;50.878;8.050;2023-01-10T09:07:36;5.70;99.90
35258;DHT22;21385;50.878;8.050;2023-01-10T09:10:02;5.80;99.90
35258;DHT22;21385;50.878;8.050;2023-01-10T09:12:28;5.90;99.90
35258;DHT22;21385;50.878;8.050;2023-01-10T09:15:12;5.90;99.90
35258;DHT22;21385;50.878;8.050;2023-01-10T09:17:38;5.90;99.90
35258;DHT22;21385;50.878;8.050;2023-01-10T09:20:04;5.90;99.90
35258;DHT22;21385;50.878;8.050;2023-01-10T09:22:35;6.00;99.90
35258;DHT22;21385;50.878;8.050;2023-01-10T09:25:00;5.90;99.90
35258;DHT22;21385;50.878;8.050;2023-01-10T09:27:26;6.00;99.90
35258;DHT22;21385;50.878;8.050;2023-01-10T09:29:51;6.00;99.90
35258;DHT22;21385;50.878;8.050;2023-01-10T09:34:44;6.20;99.90
35258;DHT22;21385;50.878;8.050;2023-01-10T09:37:09;6.10;99.90
35258;DHT22;21385;50.878;8.050;2023-01-10T09:39:35;6.10;99.90
35258;DHT22;21385;50.878;8.050;2023-01-10T09:44:45;6.30;99.90
35258;DHT22;21385;50.878;8.050;2023-01-10T09:53:32;6.30;99.90
35258;DHT22;21385;50.878;8.050;2023-01-10T09:56:00;6.30;99.90
35258;DHT22;21385;50.878;8.050;2023-01-10T09:58:28;6.40;99.90
35258;DHT22;21385;50.878;8.050;2023-01-10T10:00:56;6.30;99.90
35258;DHT22;21385;50.878;8.050;2023-01-10T10:03:39;6.30;99.90
35258;DHT22;21385;50.878;8.050;2023-01-10T10:08:35;6.50;99.90
35258;DHT22;21385;50.878;8.050;2023-01-10T10:31:12;6.40;99.90
35258;DHT22;21385;50.878;8.050;2023-01-10T10:33:48;6.30;99.90
35258;DHT22;21385;50.878;8.050;2023-01-10T10:36:34;6.50;99.90
35258;DHT22;21385;50.878;8.050;2023-01-10T10:39:03;6.40;99.90
35258;DHT22;21385;50.878;8.050;2023-01-10T10:41:42;6.40;99.90
35258;DHT22;21385;50.878;8.050;2023-01-10T10:47:35;6.50;99.90
35258;DHT22;21385;50.878;8.050;2023-01-10T10:52:47;6.70;99.90
35258;DHT22;21385;50.878;8.050;2023-01-10T10:55:15;6.80;99.90
35258;DHT22;21385;50.878;8.050;2023-01-10T10:57:42;6.90;99.90
35258;DHT22;21385;50.878;8.050;2023-01-10T11:00:14;6.90;99.90
35258;DHT22;21385;50.878;8.050;2023-01-10T11:02:48;7.00;99.90
35258;DHT22;21385;50.878;8.050;2023-01-10T11:05:19;6.80;99.90
35258;DHT22;21385;50.878;8.050;2023-01-10T11:07:45;6.80;99.90
35258;DHT22;21385;50.878;8.050;2023-01-10T11:10:15;6.90;99.90
35258;DHT22;21385;50.878;8.050;2023-01-10T11:13:00;6.90;99.90
35258;DHT22;21385;50.878;8.050;2023-01-10T11:18:14;7.20;99.90
35258;DHT22;21385;50.878;8.050;2023-01-10T11:26:07;7.30;99.90
35258;DHT22;21385;50.878;8.050;2023-01-10T11:28:33;7.20;99.90
35258;DHT22;21385;50.878;8.050;2023-01-10T11:31:00;7.20;99.90
35258;DHT22;21385;50.878;8.050;2023-01-10T11:33:30;7.10;99.90
35258;DHT22;21385;50.878;8.050;2023-01-10T11:36:05;7.10;99.90
35258;DHT22;21385;50.878;8.050;2023-01-10T11:38:32;7.20;99.90
35258;DHT22;21385;50.878;8.050;2023-01-10T11:41:22;7.30;99.90
35258;DHT22;21385;50.878;8.050;2023-01-10T11:43:49;7.40;99.90
35258;DHT22;21385;50.878;8.050;2023-01-10T11:46:17;7.40;99.90
35258;DHT22;21385;50.878;8.050;2023-01-10T11:48:58;7.50;99.90
35258;DHT22;21385;50.878;8.050;2023-01-10T11:51:27;7.50;99.90
35258;DHT22;21385;50.878;8.050;2023-01-10T11:54:05;7.40;99.90
35258;DHT22;21385;50.878;8.050;2023-01-10T11:56:34;7.60;99.90
35258;DHT22;21385;50.878;8.050;2023-01-10T11:59:10;7.50;99.90
35258;DHT22;21385;50.878;8.050;2023-01-10T12:01:41;7.50;99.90
35258;DHT22;21385;50.878;8.050;2023-01-10T12:04:16;7.40;99.90
35258;DHT22;21385;50.878;8.050;2023-01-10T12:06:50;7.30;99.90
35258;DHT22;21385;50.878;8.050;2023-01-10T12:09:44;7.30;99.90
35258;DHT22;21385;50.878;8.050;2023-01-10T12:12:22;7.40;99.90
35258;DHT22;21385;50.878;8.050;2023-01-10T12:14:50;7.40;99.90
35258;DHT22;21385;50.878;8.050;2023-01-10T12:17:30;7.50;99.90
35258;DHT22;21385;50.878;8.050;2023-01-10T12:19:57;7.40;99.90
35258;DHT22;21385;50.878;8.050;2023-01-10T12:22:51;7.30;99.90
35258;DHT22;21385;50.878;8.050;2023-01-10T12:25:32;7.30;99.90
35258;DHT22;21385;50.878;8.050;2023-01-10T12:27:59;7.30;99.90
35258;DHT22;21385;50.878;8.050;2023-01-10T12:30:34;7.30;99.90
35258;DHT22;21385;50.878;8.050;2023-01-10T12:33:06;7.30;99.90
35258;DHT22;21385;50.878;8.050;2023-01-10T12:35:58;7.30;99.90
35258;DHT22;21385;50.878;8.050;2023-01-10T12:41:29;7.20;99.90
35258;DHT22;21385;50.878;8.050;2023-01-10T12:44:25;7.20;99.90
35258;DHT22;21385;50.878;8.050;2023-01-10T12:47:27;7.20;99.90
35258;DHT22;21385;50.878;8.050;2023-01-10T12:50:06;7.30;99.90
35258;DHT22;21385;50.878;8.050;2023-01-10T12:52:42;7.20;99.90
35258;DHT22;21385;50.878;8.050;2023-01-10T12:55:21;7.20;99.90
35258;DHT22;21385;50.878;8.050;2023-01-10T12:57:51;7.20;99.90
35258;DHT22;21385;50.878;8.050;2023-01-10T13:00:22;7.30;99.90
35258;DHT22;21385;50.878;8.050;2023-01-10T13:02:51;7.20;99.90
35258;DHT22;21385;50.878;8.050;2023-01-10T13:05:21;7.20;99.90
35258;DHT22;21385;50.878;8.050;2023-01-10T13:07:48;7.10;99.90
35258;DHT22;21385;50.878;8.050;2023-01-10T13:10:17;7.10;99.90
35258;DHT22;21385;50.878;8.050;2023-01-10T13:12:56;7.00;99.90
35258;DHT22;21385;50.878;8.050;2023-01-10T13:15:32;7.00;99.90
35258;DHT22;21385;50.878;8.050;2023-01-10T13:18:02;7.00;99.90
35258;DHT22;21385;50.878;8.050;2023-01-10T13:20:38;6.90;99.90
35258;DHT22;21385;50.878;8.050;2023-01-10T13:25:54;7.00;99.90
35258;DHT22;21385;50.878;8.050;2023-01-10T13:28:25;7.00;99.90
35258;DHT22;21385;50.878;8.050;2023-01-10T13:30:55;6.90;99.90
35258;DHT22;21385;50.878;8.050;2023-01-10T13:33:24;6.80;99.90
35258;DHT22;21385;50.878;8.050;2023-01-10T13:35:52;6.80;99.90
35258;DHT22;21385;50.878;8.050;2023-01-10T13:41:01;6.80;99.90
35258;DHT22;21385;50.878;8.050;2023-01-10T13:51:21;6.90;99.90
35258;DHT22;21385;50.878;8.050;2023-01-10T13:53:53;6.90;99.90
35258;DHT22;21385;50.878;8.050;2023-01-10T13:56:38;7.00;99.90
35258;DHT22;21385;50.878;8.050;2023-01-10T13:59:15;7.00;99.90
35258;DHT22;21385;50.878;8.050;2023-01-10T14:02:22;7.00;99.90
35258;DHT22;21385;50.878;8.050;2023-01-10T14:05:00;7.00;99.90
35258;DHT22;21385;50.878;8.050;2023-01-10T14:07:33;7.00;99.90
35258;DHT22;21385;50.878;8.050;2023-01-10T14:10:17;7.10;99.90
35258;DHT22;21385;50.878;8.050;2023-01-10T14:15:29;7.10;99.90
35258;DHT22;21385;50.878;8.050;2023-01-10T14:18:02;7.10;99.90
35258;DHT22;21385;50.878;8.050;2023-01-10T14:20:30;7.10;99.90
35258;DHT22;21385;50.878;8.050;2023-01-10T14:22:58;7.10;99.90
35258;DHT22;21385;50.878;8.050;2023-01-10T14:25:25;7.00;99.90
35258;DHT22;21385;50.878;8.050;2023-01-10T14:27:52;7.00;99.90
35258;DHT22;21385;50.878;8.050;2023-01-10T14:30:28;7.00;99.90
35258;DHT22;21385;50.878;8.050;2023-01-10T14:32:56;7.00;99.90
35258;DHT22;21385;50.878;8.050;2023-01-10T14:35:32;7.10;99.90
35258;DHT22;21385;50.878;8.050;2023-01-10T14:38:00;7.00;99.90
35258;DHT22;21385;50.878;8.050;2023-01-10T14:40:40;6.90;99.90
35258;DHT22;21385;50.878;8.050;2023-01-10T14:43:16;7.00;99.90
35258;DHT22;21385;50.878;8.050;2023-01-10T14:48:34;6.80;99.90
35258;DHT22;21385;50.878;8.050;2023-01-10T14:54:10;6.80;99.90
35258;DHT22;21385;50.878;8.050;2023-01-10T14:56:41;6.80;99.90
35258;DHT22;21385;50.878;8.050;2023-01-10T14:59:28;6.90;99.90
35258;DHT22;21385;50.878;8.050;2023-01-10T15:02:19;6.90;99.90
35258;DHT22;21385;50.878;8.050;2023-01-10T15:07:20;6.90;99.90
35258;DHT22;21385;50.878;8.050;2023-01-10T15:09:49;6.90;99.90
35258;DHT22;21385;50.878;8.050;2023-01-10T15:12:15;6.90;99.90
35258;DHT22;21385;50.878;8.050;2023-01-10T15:14:42;6.90;99.90
35258;DHT22;21385;50.878;8.050;2023-01-10T15:17:12;6.80;99.90
35258;DHT22;21385;50.878;8.050;2023-01-10T15:19:42;6.80;99.90
35258;DHT22;21385;50.878;8.050;2023-01-10T15:22:27;6.90;99.90
35258;DHT22;21385;50.878;8.050;2023-01-10T15:25:01;6.80;99.90
35258;DHT22;21385;50.878;8.050;2023-01-10T15:27:28;6.80;99.90
35258;DHT22;21385;50.878;8.050;2023-01-10T15:29:55;6.80;99.90
35258;DHT22;21385;50.878;8.050;2023-01-10T15:32:36;6.80;99.90
35258;DHT22;21385;50.878;8.050;2023-01-10T15:35:05;6.80;99.90
35258;DHT22;21385;50.878;8.050;2023-01-10T15:37:35;6.80;99.90
35258;DHT22;21385;50.878;8.050;2023-01-10T15:40:04;6.80;99.90
35258;DHT22;21385;50.878;8.050;2023-01-10T15:42:31;6.80;99.90
35258;DHT22;21385;50.878;8.050;2023-01-10T15:44:57;6.80;99.90
35258;DHT22;21385;50.878;8.050;2023-01-10T15:47:35;6.80;99.90
35258;DHT22;21385;50.878;8.050;2023-01-10T15:50:23;6.90;99.90
35258;DHT22;21385;50.878;8.050;2023-01-10T15:53:02;6.80;99.90
35258;DHT22;21385;50.878;8.050;2023-01-10T15:55:49;7.80;99.90
35258;DHT22;21385;50.878;8.050;2023-01-10T16:00:53;8.00;99.90
35258;DHT22;21385;50.878;8.050;2023-01-10T16:03:32;7.80;99.90
35258;DHT22;21385;50.878;8.050;2023-01-10T16:05:59;7.70;99.90
35258;DHT22;21385;50.878;8.050;2023-01-10T16:08:29;7.70;99.90
35258;DHT22;21385;50.878;8.050;2023-01-10T16:10:58;7.50;99.90
35258;DHT22;21385;50.878;8.050;2023-01-10T16:13:24;7.40;99.90
35258;DHT22;21385;50.878;8.050;2023-01-10T16:15:56;7.30;99.90
35258;DHT22;21385;50.878;8.050;2023-01-10T16:18:23;7.30;99.90
35258;DHT22;21385;50.878;8.050;2023-01-10T16:20:52;7.20;99.90
35258;DHT22;21385;50.878;8.050;2023-01-10T16:23:36;7.20;99.90
35258;DHT22;21385;50.878;8.050;2023-01-10T16:26:04;7.20;99.90
35258;DHT22;21385;50.878;8.050;2023-01-10T16:28:31;7.10;99.90
35258;DHT22;21385;50.878;8.050;2023-01-10T16:31:01;7.10;99.90
35258;DHT22;21385;50.878;8.050;2023-01-10T16:33:26;7.00;99.90
35258;DHT22;21385;50.878;8.050;2023-01-10T16:35:57;7.00;99.90
35258;DHT22;21385;50.878;8.050;2023-01-10T16:38:25;7.00;99.90
35258;DHT22;21385;50.878;8.050;2023-01-10T16:41:01;7.00;99.90
35258;DHT22;21385;50.878;8.050;2023-01-10T16:43:49;7.00;99.90
35258;DHT22;21385;50.878;8.050;2023-01-10T16:46:17;6.90;99.90
35258;DHT22;21385;50.878;8.050;2023-01-10T16:48:42;6.90;99.90
35258;DHT22;21385;50.878;8.050;2023-01-10T16:51:21;6.80;99.90
35258;DHT22;21385;50.878;8.050;2023-01-10T16:53:50;6.90;99.90
35258;DHT22;21385;50.878;8.050;2023-01-10T16:56:28;6.80;99.90
35258;DHT22;21385;50.878;8.050;2023-01-10T16:58:53;6.80;99.90
35258;DHT22;21385;50.878;8.050;2023-01-10T17:01:25;6.80;99.90
35258;DHT22;21385;50.878;8.050;2023-01-10T17:03:52;6.80;99.90
35258;DHT22;21385;50.878;8.050;2023-01-10T17:06:18;6.80;99.90
35258;DHT22;21385;50.878;8.050;2023-01-10T17:08:45;6.70;99.90
35258;DHT22;21385;50.878;8.050;2023-01-10T17:11:15;6.80;99.90
35258;DHT22;21385;50.878;8.050;2023-01-10T17:13:43;6.70;99.90
35258;DHT22;21385;50.878;8.050;2023-01-10T17:16:09;6.80;99.90
35258;DHT22;21385;50.878;8.050;2023-01-10T17:18:35;6.80;99.90
35258;DHT22;21385;50.878;8.050;2023-01-10T17:21:01;6.80;99.90
35258;DHT22;21385;50.878;8.050;2023-01-10T17:23:27;6.90;99.90
35258;DHT22;21385;50.878;8.050;2023-01-10T17:26:01;6.80;99.90
35258;DHT22;21385;50.878;8.050;2023-01-10T17:28:27;6.80;99.90
35258;DHT22;21385;50.878;8.050;2023-01-10T17:30:54;6.90;99.90
35258;DHT22;21385;50.878;8.050;2023-01-10T17:33:20;6.90;99.90
35258;DHT22;21385;50.878;8.050;2023-01-10T17:35:45;6.90;99.90
35258;DHT22;21385;50.878;8.050;2023-01-10T17:38:15;6.80;99.90
35258;DHT22;21385;50.878;8.050;2023-01-10T17:40:45;6.90;99.90
35258;DHT22;21385;50.878;8.050;2023-01-10T17:43:12;6.90;99.90
35258;DHT22;21385;50.878;8.050;2023-01-10T17:45:42;6.90;99.90
35258;DHT22;21385;50.878;8.050;2023-01-10T17:48:09;6.90;99.90
35258;DHT22;21385;50.878;8.050;2023-01-10T17:50:37;6.90;99.90
35258;DHT22;21385;50.878;8.050;2023-01-10T17:53:03;6.90;99.90
35258;DHT22;21385;50.878;8.050;2023-01-10T17:55:29;6.90;99.90
35258;DHT22;21385;50.878;8.050;2023-01-10T17:57:55;6.90;99.90